createdAt,value
2022-10-30T00:00:25.791Z,75.24
2022-10-30T00:02:52.672Z,75.45
2022-10-30T00:05:20.942Z,75.67
2022-10-30T00:07:48.420Z,75.81
2022-10-30T00:10:15.659Z,75.87
2022-10-30T00:12:43.306Z,75.74
2022-10-30T00:15:10.653Z,76.14
2022-10-30T00:17:37.526Z,75.80
2022-10-30T00:20:04.750Z,76.12
2022-10-30T00:22:31.425Z,75.87
2022-10-30T00:24:58.329Z,75.87
2022-10-30T00:27:25.078Z,75.64
2022-10-30T00:29:51.709Z,75.81
2022-10-30T00:32:18.409Z,75.84
2022-10-30T00:34:45.131Z,75.82
2022-10-30T00:37:11.845Z,75.69
2022-10-30T00:39:39.153Z,75.77
2022-10-30T00:42:05.990Z,75.77
2022-10-30T00:44:45.047Z,75.75
2022-10-30T00:47:17.332Z,75.80
2022-10-30T00:50:22.947Z,75.70
2022-10-30T00:53:03.998Z,75.78
2022-10-30T00:55:39.038Z,75.88
2022-10-30T00:58:10.983Z,76.19
2022-10-30T01:00:40.834Z,76.13
2022-10-30T01:03:07.936Z,76.53
2022-10-30T01:05:35.989Z,76.54
2022-10-30T01:08:02.893Z,76.54
2022-10-30T01:10:30.450Z,76.66
2022-10-30T01:12:58.750Z,76.58
2022-10-30T01:15:38.529Z,76.49
2022-10-30T01:18:43.007Z,76.39
2022-10-30T01:21:24.927Z,76.45
2022-10-30T01:24:24.162Z,76.60
2022-10-30T01:27:21.052Z,76.38
2022-10-30T01:29:56.965Z,76.17
2022-10-30T01:32:54.949Z,76.23
2022-10-30T01:35:32.524Z,76.14
2022-10-30T01:38:14.876Z,76.05
2022-10-30T01:40:44.203Z,75.88
2022-10-30T01:43:11.084Z,75.73
2022-10-30T01:45:58.961Z,75.93
2022-10-30T01:48:43.875Z,75.95
2022-10-30T01:51:40.285Z,76.05
2022-10-30T01:54:34.969Z,76.32
2022-10-30T01:57:01.866Z,76.34
2022-10-30T01:59:42.308Z,76.41
2022-10-30T02:02:09.919Z,76.41
2022-10-30T02:04:37.257Z,76.08
2022-10-30T02:07:04.117Z,76.15
2022-10-30T02:09:31.550Z,76.19
2022-10-30T02:11:58.601Z,75.92
2022-10-30T02:14:30.165Z,76.46
2022-10-30T02:17:00.939Z,76.35
2022-10-30T02:19:28.043Z,76.39
2022-10-30T02:21:55.022Z,75.96
2022-10-30T02:24:21.828Z,76.38
2022-10-30T02:26:48.517Z,76.21
2022-10-30T02:29:15.233Z,76.41
2022-10-30T02:31:41.950Z,76.29
2022-10-30T02:34:08.758Z,76.37
2022-10-30T02:36:35.401Z,76.33
2022-10-30T02:39:02.047Z,76.49
2022-10-30T02:41:29.083Z,76.62
2022-10-30T02:43:55.767Z,76.63
2022-10-30T02:46:22.539Z,76.91
2022-10-30T02:48:49.391Z,76.88
2022-10-30T02:51:16.554Z,76.73
2022-10-30T02:53:43.473Z,76.81
2022-10-30T02:56:13.549Z,76.82
2022-10-30T02:58:40.878Z,76.72
2022-10-30T03:01:16.587Z,76.91
2022-10-30T03:03:44.051Z,76.63
2022-10-30T03:06:15.675Z,76.54
2022-10-30T03:08:43.594Z,76.55
2022-10-30T03:11:15.310Z,76.42
2022-10-30T03:13:43.460Z,76.45
2022-10-30T03:16:13.603Z,76.57
2022-10-30T03:18:41.122Z,76.46
2022-10-30T03:21:10.998Z,76.53
2022-10-30T03:23:37.933Z,76.70
2022-10-30T03:26:05.462Z,76.80
2022-10-30T03:28:32.597Z,76.58
2022-10-30T03:31:10.435Z,76.72
2022-10-30T03:33:38.177Z,76.65
2022-10-30T03:36:06.683Z,76.38
2022-10-30T03:38:34.045Z,76.69
2022-10-30T03:41:01.219Z,76.64
2022-10-30T03:43:28.193Z,76.72
2022-10-30T03:45:56.745Z,76.84
2022-10-30T03:48:26.151Z,76.79
2022-10-30T03:50:57.634Z,76.55
2022-10-30T03:53:26.442Z,76.88
2022-10-30T03:55:57.457Z,76.80
2022-10-30T03:58:24.176Z,76.92
2022-10-30T04:00:51.005Z,76.83
2022-10-30T04:03:17.691Z,76.86
2022-10-30T04:05:44.421Z,77.27
2022-10-30T04:08:13.788Z,76.79
2022-10-30T04:10:47.721Z,76.90
2022-10-30T04:13:16.715Z,76.69
2022-10-30T04:15:43.850Z,76.99
2022-10-30T04:18:11.967Z,76.94
2022-10-30T04:20:39.003Z,76.71
2022-10-30T04:23:07.653Z,76.86
2022-10-30T04:25:35.855Z,76.75
2022-10-30T04:28:03.608Z,76.83
2022-10-30T04:30:35.379Z,76.63
2022-10-30T04:33:04.315Z,76.70
2022-10-30T04:35:34.093Z,76.52
2022-10-30T04:38:03.911Z,76.48
2022-10-30T04:40:33.940Z,76.81
2022-10-30T04:43:01.339Z,76.76
2022-10-30T04:45:28.065Z,76.63
2022-10-30T04:48:04.976Z,76.84
2022-10-30T04:50:32.664Z,76.56
2022-10-30T04:53:04.440Z,76.61
2022-10-30T04:55:31.798Z,76.83
2022-10-30T04:58:00.175Z,76.55
2022-10-30T05:00:27.596Z,76.84
2022-10-30T05:02:54.412Z,76.85
2022-10-30T05:05:21.367Z,77.06
2022-10-30T05:07:48.433Z,76.79
2022-10-30T05:10:15.926Z,77.01
2022-10-30T05:12:43.478Z,77.22
2022-10-30T05:15:11.048Z,77.35
2022-10-30T05:17:37.912Z,77.32
2022-10-30T05:20:06.325Z,77.35
2022-10-30T05:22:33.378Z,77.60
2022-10-30T05:25:00.082Z,77.36
2022-10-30T05:27:26.724Z,77.41
2022-10-30T05:29:53.554Z,77.57
2022-10-30T05:32:20.352Z,77.60
2022-10-30T05:34:47.259Z,77.56
2022-10-30T05:37:14.054Z,77.51
2022-10-30T05:39:40.818Z,77.83
2022-10-30T05:42:11.276Z,77.93
2022-10-30T05:44:59.833Z,78.27
2022-10-30T05:47:27.524Z,78.43
2022-10-30T05:49:54.311Z,78.41
2022-10-30T05:52:20.984Z,78.27
2022-10-30T05:54:47.622Z,78.27
2022-10-30T05:57:14.275Z,78.29
2022-10-30T05:59:41.017Z,78.23
2022-10-30T06:02:07.708Z,78.40
2022-10-30T06:04:34.424Z,78.44
2022-10-30T06:07:01.160Z,78.42
2022-10-30T06:09:27.977Z,78.42
2022-10-30T06:11:54.745Z,78.28
2022-10-30T06:14:21.432Z,78.29
2022-10-30T06:16:48.624Z,78.10
2022-10-30T06:19:18.384Z,78.34
2022-10-30T06:21:46.010Z,78.19
2022-10-30T06:24:12.827Z,78.35
2022-10-30T06:26:39.761Z,78.28
2022-10-30T06:29:06.600Z,78.40
2022-10-30T06:31:36.893Z,78.58
2022-10-30T06:34:05.490Z,78.40
2022-10-30T06:36:32.133Z,78.49
2022-10-30T06:38:59.188Z,78.49
2022-10-30T06:41:27.587Z,78.34
2022-10-30T06:43:56.975Z,78.42
2022-10-30T06:46:26.975Z,78.41
2022-10-30T06:48:57.450Z,78.34
2022-10-30T06:51:24.186Z,78.40
2022-10-30T06:53:50.814Z,78.26
2022-10-30T06:56:17.490Z,78.43
2022-10-30T06:58:44.195Z,78.52
2022-10-30T07:01:11.293Z,78.57
2022-10-30T07:03:38.010Z,78.48
2022-10-30T07:06:04.817Z,78.42
2022-10-30T07:08:32.779Z,78.40
2022-10-30T07:10:59.643Z,78.43
2022-10-30T07:13:26.318Z,78.29
2022-10-30T07:15:53.093Z,78.20
2022-10-30T07:18:19.913Z,78.18
2022-10-30T07:20:46.557Z,78.10
2022-10-30T07:23:13.341Z,78.09
2022-10-30T07:25:40.004Z,78.16
2022-10-30T07:28:06.667Z,78.30
2022-10-30T07:30:33.755Z,78.06
2022-10-30T07:33:03.610Z,77.96
2022-10-30T07:35:31.192Z,78.02
2022-10-30T07:38:05.654Z,77.96
2022-10-30T07:40:33.757Z,77.88
2022-10-30T07:43:02.312Z,77.98
2022-10-30T07:45:29.600Z,78.11
2022-10-30T07:47:56.982Z,78.07
2022-10-30T07:50:24.489Z,77.97
2022-10-30T07:52:51.251Z,78.05
2022-10-30T07:55:17.900Z,77.88
2022-10-30T07:57:44.587Z,77.96
2022-10-30T08:00:13.935Z,77.61
2022-10-30T08:02:41.257Z,77.37
2022-10-30T08:05:08.728Z,77.27
2022-10-30T08:07:37.819Z,77.66
2022-10-30T08:10:05.626Z,77.27
2022-10-30T08:12:33.912Z,76.83
2022-10-30T08:15:00.952Z,76.64
2022-10-30T08:17:27.668Z,76.63
2022-10-30T08:19:54.481Z,76.12
2022-10-30T08:22:21.287Z,75.87
2022-10-30T08:24:47.969Z,75.70
2022-10-30T08:27:14.584Z,75.28
2022-10-30T08:29:42.168Z,74.98
2022-10-30T08:32:08.843Z,74.94
2022-10-30T08:34:35.608Z,75.06
2022-10-30T08:37:02.533Z,74.69
2022-10-30T08:39:29.195Z,74.38
2022-10-30T08:41:58.681Z,74.36
2022-10-30T08:44:25.650Z,74.04
2022-10-30T08:46:52.294Z,74.06
2022-10-30T08:49:19.164Z,74.01
2022-10-30T08:51:46.182Z,74.00
2022-10-30T08:54:13.135Z,73.63
2022-10-30T08:56:39.747Z,73.33
2022-10-30T08:59:06.518Z,73.11
2022-10-30T09:01:33.245Z,73.17
2022-10-30T09:03:59.928Z,73.36
2022-10-30T09:06:26.535Z,73.10
2022-10-30T09:08:53.479Z,72.81
2022-10-30T09:11:20.107Z,72.41
2022-10-30T09:13:46.656Z,72.57
2022-10-30T09:16:13.379Z,72.35
2022-10-30T09:18:40.059Z,72.13
2022-10-30T09:21:07.056Z,72.00
2022-10-30T09:23:35.354Z,71.81
2022-10-30T09:26:02.058Z,71.76
2022-10-30T09:28:28.896Z,71.58
2022-10-30T09:30:56.998Z,71.49
2022-10-30T09:33:23.852Z,71.01
2022-10-30T09:35:50.618Z,71.06
2022-10-30T09:38:17.227Z,71.19
2022-10-30T09:41:04.186Z,71.20
2022-10-30T09:43:40.116Z,70.92
2022-10-30T09:46:06.903Z,71.04
2022-10-30T09:48:58.138Z,70.83
2022-10-30T09:51:49.941Z,70.69
2022-10-30T09:54:47.297Z,70.66
2022-10-30T09:57:25.187Z,70.50
2022-10-30T10:00:04.214Z,70.48
2022-10-30T10:03:04.417Z,70.24
2022-10-30T10:05:48.933Z,69.91
2022-10-30T10:08:35.937Z,70.11
2022-10-30T10:11:25.557Z,69.57
2022-10-30T10:14:00.463Z,69.28
2022-10-30T10:16:35.375Z,69.21
2022-10-30T10:19:31.278Z,68.99
2022-10-30T10:22:00.738Z,68.67
2022-10-30T10:24:38.454Z,68.37
2022-10-30T10:27:14.309Z,68.05
2022-10-30T10:30:18.385Z,67.39
2022-10-30T10:33:10.927Z,67.13
2022-10-30T10:36:02.737Z,66.58
2022-10-30T10:38:54.946Z,66.42
2022-10-30T10:41:33.627Z,66.10
2022-10-30T10:44:00.363Z,65.73
2022-10-30T10:46:49.039Z,65.33
2022-10-30T10:49:40.063Z,65.09
2022-10-30T10:52:35.647Z,64.66
2022-10-30T10:55:13.919Z,64.72
2022-10-30T10:57:42.292Z,64.31
2022-10-30T11:00:15.455Z,63.82
2022-10-30T11:03:09.725Z,63.60
2022-10-30T11:05:44.554Z,63.11
2022-10-30T11:08:20.194Z,62.77
2022-10-30T11:10:56.518Z,62.31
2022-10-30T11:13:45.928Z,62.26
2022-10-30T11:16:44.430Z,61.74
2022-10-30T11:19:11.474Z,61.46
2022-10-30T11:21:50.976Z,61.07
2022-10-30T11:24:29.194Z,60.83
2022-10-30T11:27:20.047Z,60.67
2022-10-30T11:29:57.779Z,60.48
2022-10-30T11:32:28.760Z,60.16
2022-10-30T11:35:07.877Z,60.08
2022-10-30T11:37:40.089Z,59.86
2022-10-30T11:40:20.137Z,60.05
2022-10-30T11:43:02.907Z,60.16
2022-10-30T11:45:37.843Z,60.04
2022-10-30T11:48:14.087Z,59.93
2022-10-30T11:50:47.837Z,59.77
2022-10-30T11:53:31.215Z,59.67
2022-10-30T11:55:59.002Z,59.50
2022-10-30T11:58:32.905Z,59.63
2022-10-30T12:01:13.776Z,59.41
2022-10-30T12:03:42.224Z,59.27
2022-10-30T12:06:29.648Z,59.45
2022-10-30T12:09:04.912Z,59.49
2022-10-30T12:11:34.486Z,59.46
2022-10-30T12:14:02.015Z,59.24
2022-10-30T12:16:29.820Z,58.97
2022-10-30T12:19:15.358Z,59.13
2022-10-30T12:21:48.957Z,59.31
2022-10-30T12:24:25.271Z,59.46
2022-10-30T12:26:54.941Z,59.32
2022-10-30T12:29:41.685Z,59.64
2022-10-30T12:32:21.767Z,59.87
2022-10-30T12:34:58.380Z,60.14
2022-10-30T12:37:29.897Z,60.11
2022-10-30T12:40:10.685Z,60.07
2022-10-30T12:42:46.353Z,60.20
2022-10-30T12:45:15.131Z,60.24
2022-10-30T12:48:03.825Z,60.71
2022-10-30T12:50:49.216Z,60.33
2022-10-30T12:53:29.163Z,60.37
2022-10-30T12:56:01.182Z,60.35
2022-10-30T12:58:39.121Z,60.41
2022-10-30T13:01:08.919Z,60.63
2022-10-30T13:04:23.478Z,60.66
2022-10-30T13:06:54.477Z,60.63
2022-10-30T13:09:30.981Z,61.14
2022-10-30T13:12:04.789Z,60.83
2022-10-30T13:14:57.641Z,60.93
2022-10-30T13:17:25.057Z,60.85
2022-10-30T13:19:51.712Z,61.03
2022-10-30T13:22:48.905Z,60.80
2022-10-30T13:25:28.676Z,60.78
2022-10-30T13:28:16.044Z,60.84
2022-10-30T13:31:01.542Z,60.77
2022-10-30T13:33:46.017Z,60.84
2022-10-30T13:36:27.301Z,60.90
2022-10-30T13:39:31.607Z,60.86
2022-10-30T13:42:23.389Z,61.10
2022-10-30T13:45:22.489Z,61.21
2022-10-30T13:48:13.435Z,61.39
2022-10-30T13:50:40.079Z,61.65
2022-10-30T13:53:15.098Z,61.66
2022-10-30T13:55:43.861Z,61.67
2022-10-30T13:58:34.140Z,61.71
2022-10-30T14:01:23.072Z,61.61
2022-10-30T14:04:23.286Z,61.74
2022-10-30T14:07:24.849Z,61.88
2022-10-30T14:10:05.612Z,62.04
2022-10-30T14:13:07.947Z,62.23
2022-10-30T14:15:42.843Z,62.14
2022-10-30T14:18:12.454Z,62.31
2022-10-30T14:20:42.784Z,62.28
2022-10-30T14:23:19.544Z,62.25
2022-10-30T14:26:04.567Z,62.45
2022-10-30T14:28:36.633Z,62.66
2022-10-30T14:31:12.099Z,62.60
2022-10-30T14:33:54.443Z,62.58
2022-10-30T14:36:39.538Z,62.69
2022-10-30T14:39:14.881Z,62.65
2022-10-30T14:41:48.264Z,62.76
2022-10-30T14:44:27.077Z,62.85
2022-10-30T14:47:12.541Z,62.90
2022-10-30T14:49:56.558Z,62.94
2022-10-30T14:52:44.514Z,62.92
2022-10-30T14:55:32.202Z,63.06
2022-10-30T14:58:02.003Z,62.95
2022-10-30T15:00:40.321Z,63.01
2022-10-30T15:03:15.789Z,63.28
2022-10-30T15:05:59.730Z,63.28
2022-10-30T15:08:58.327Z,63.31
2022-10-30T15:11:24.835Z,63.37
2022-10-30T15:13:56.273Z,63.53
2022-10-30T15:16:24.800Z,63.35
2022-10-30T15:19:06.275Z,63.77
2022-10-30T15:21:41.265Z,63.68
2022-10-30T15:24:15.331Z,63.55
2022-10-30T15:26:47.260Z,63.45
2022-10-30T15:29:20.427Z,63.58
2022-10-30T15:32:00.313Z,63.42
2022-10-30T15:34:29.298Z,63.72
2022-10-30T15:36:56.664Z,63.73
2022-10-30T15:39:24.243Z,63.69
2022-10-30T15:41:53.948Z,63.86
2022-10-30T15:44:24.560Z,63.67
2022-10-30T15:46:54.327Z,63.95
2022-10-30T15:49:34.365Z,63.78
2022-10-30T15:52:25.599Z,63.98
2022-10-30T15:55:02.567Z,63.75
2022-10-30T15:58:02.480Z,63.89
2022-10-30T16:00:27.442Z,63.82
2022-10-30T16:03:13.991Z,63.83
2022-10-30T16:05:40.865Z,63.83
2022-10-30T16:08:22.064Z,63.78
2022-10-30T16:10:52.448Z,64.21
2022-10-30T16:13:23.824Z,64.14
2022-10-30T16:15:51.074Z,64.33
2022-10-30T16:18:33.465Z,64.48
2022-10-30T16:21:08.566Z,64.65
2022-10-30T16:23:41.471Z,64.72
2022-10-30T16:26:32.965Z,65.07
2022-10-30T16:29:07.769Z,65.36
2022-10-30T16:31:36.349Z,65.58
2022-10-30T16:34:06.158Z,65.33
2022-10-30T16:36:33.754Z,65.50
2022-10-30T16:39:00.683Z,65.69
2022-10-30T16:41:29.603Z,65.61
2022-10-30T16:44:16.453Z,65.99
2022-10-30T16:46:53.538Z,66.01
2022-10-30T16:49:24.245Z,66.10
2022-10-30T16:52:06.733Z,66.13
2022-10-30T16:54:37.680Z,66.25
2022-10-30T16:57:14.826Z,66.49
2022-10-30T16:59:51.103Z,66.60
2022-10-30T17:02:23.235Z,66.76
2022-10-30T17:04:57.108Z,66.98
2022-10-30T17:07:26.961Z,66.84
2022-10-30T17:09:57.029Z,67.00
2022-10-30T17:12:29.241Z,66.92
2022-10-30T17:15:10.514Z,67.45
2022-10-30T17:17:39.233Z,67.63
2022-10-30T17:20:23.813Z,67.33
2022-10-30T17:23:07.481Z,67.58
2022-10-30T17:25:38.930Z,67.56
2022-10-30T17:28:07.264Z,67.64
2022-10-30T17:30:39.920Z,67.42
2022-10-30T17:33:23.560Z,67.05
2022-10-30T17:35:51.028Z,67.36
2022-10-30T17:38:18.105Z,67.34
2022-10-30T17:40:44.840Z,67.38
2022-10-30T17:43:15.555Z,67.37
2022-10-30T17:45:46.247Z,67.31
2022-10-30T17:48:18.270Z,67.64
2022-10-30T17:50:45.186Z,67.39
2022-10-30T17:53:24.075Z,67.27
2022-10-30T17:56:05.391Z,67.51
2022-10-30T17:58:32.026Z,67.25
2022-10-30T18:00:59.431Z,67.61
2022-10-30T18:03:26.369Z,67.58
2022-10-30T18:05:54.453Z,67.66
2022-10-30T18:08:21.159Z,68.12
2022-10-30T18:10:47.950Z,68.04
2022-10-30T18:13:15.635Z,67.99
2022-10-30T18:15:49.168Z,68.24
2022-10-30T18:18:16.165Z,68.40
2022-10-30T18:20:42.977Z,68.60
2022-10-30T18:26:15.789Z,68.96
2022-10-30T18:28:42.779Z,69.24
2022-10-30T18:31:12.908Z,69.48
2022-10-30T18:33:40.338Z,69.99
2022-10-30T18:36:12.440Z,70.18
2022-10-30T18:38:39.268Z,70.27
2022-10-30T18:41:06.603Z,70.69
2022-10-30T18:43:33.257Z,70.75
2022-10-30T18:45:59.873Z,70.89
2022-10-30T18:48:26.699Z,71.15
2022-10-30T18:50:53.375Z,71.18
2022-10-30T18:53:21.033Z,71.15
2022-10-30T18:58:19.719Z,71.34
2022-10-30T19:01:10.615Z,71.30
2022-10-30T19:03:33.119Z,71.51
2022-10-30T19:05:59.779Z,71.49
2022-10-30T19:08:26.442Z,71.70
2022-10-30T19:10:57.151Z,71.82
2022-10-30T19:13:24.113Z,71.76
2022-10-30T19:16:00.997Z,71.85
2022-10-30T19:18:28.965Z,71.97
2022-10-30T19:21:04.517Z,72.03
2022-10-30T19:23:32.648Z,72.06
2022-10-30T19:25:59.405Z,72.10
2022-10-30T19:28:26.261Z,71.98
2022-10-30T19:30:55.047Z,72.18
2022-10-30T19:33:24.428Z,72.15
2022-10-30T19:36:01.186Z,72.26
2022-10-30T19:38:29.185Z,72.17
2022-10-30T19:40:55.857Z,72.08
2022-10-30T19:43:22.988Z,72.21
2022-10-30T19:45:55.431Z,72.19
2022-10-30T19:51:11.627Z,72.15
2022-10-30T19:53:39.924Z,72.43
2022-10-30T19:56:07.188Z,72.30
2022-10-30T19:58:34.239Z,72.18
2022-10-30T20:01:01.152Z,72.29
2022-10-30T20:03:28.394Z,72.16
2022-10-30T20:05:56.079Z,72.21
2022-10-30T20:08:26.105Z,72.18
2022-10-30T20:10:57.376Z,72.18
2022-10-30T20:13:25.364Z,72.38
2022-10-30T20:15:53.652Z,72.18
2022-10-30T20:18:30.235Z,72.22
2022-10-30T20:20:59.506Z,72.26
2022-10-30T20:23:26.680Z,72.26
2022-10-30T20:25:58.188Z,72.16
2022-10-30T20:28:45.248Z,72.24
2022-10-30T20:31:12.879Z,72.41
2022-10-30T20:33:39.919Z,72.39
2022-10-30T20:36:07.261Z,72.60
2022-10-30T20:38:34.733Z,72.68
2022-10-30T20:41:03.574Z,72.91
2022-10-30T20:43:32.939Z,72.80
2022-10-30T20:46:00.838Z,72.92
2022-10-30T20:48:28.852Z,72.88
2022-10-30T20:51:00.509Z,72.92
2022-10-30T20:53:28.817Z,73.28
2022-10-30T20:55:56.184Z,73.02
2022-10-30T20:58:23.009Z,73.13
2022-10-30T21:00:49.971Z,73.30
2022-10-30T21:03:17.238Z,73.29
2022-10-30T21:05:45.818Z,73.45
2022-10-30T21:08:15.989Z,73.46
2022-10-30T21:10:42.798Z,73.53
2022-10-30T21:13:11.363Z,73.48
2022-10-30T21:15:39.879Z,73.48
2022-10-30T21:18:06.908Z,73.55
2022-10-30T21:20:33.720Z,73.55
2022-10-30T21:23:00.683Z,73.46
2022-10-30T21:25:27.460Z,73.64
2022-10-30T21:27:56.996Z,73.62
2022-10-30T21:30:24.187Z,73.90
2022-10-30T21:32:50.873Z,73.56
2022-10-30T21:35:18.207Z,73.39
2022-10-30T21:37:45.207Z,74.02
2022-10-30T21:40:12.540Z,73.67
2022-10-30T21:42:39.422Z,73.59
2022-10-30T21:45:06.824Z,73.62
2022-10-30T21:47:33.522Z,73.56
2022-10-30T21:50:00.245Z,73.45
2022-10-30T21:52:26.970Z,73.64
2022-10-30T21:54:53.578Z,73.50
2022-10-30T21:57:20.462Z,73.51
2022-10-30T21:59:47.185Z,73.52
2022-10-30T22:02:15.276Z,73.63
2022-10-30T22:04:42.139Z,73.57
2022-10-30T22:07:09.069Z,73.68
2022-10-30T22:09:35.863Z,73.57
2022-10-30T22:12:02.537Z,73.68
2022-10-30T22:14:29.492Z,73.89
2022-10-30T22:16:56.323Z,73.50
2022-10-30T22:19:23.092Z,73.87
2022-10-30T22:21:49.734Z,73.82
2022-10-30T22:24:17.370Z,73.69
2022-10-30T22:26:44.266Z,73.81
2022-10-30T22:29:11.592Z,73.82
2022-10-30T22:31:38.238Z,73.68
2022-10-30T22:34:05.141Z,73.65
2022-10-30T22:36:33.587Z,73.83
2022-10-30T22:39:03.905Z,73.87
2022-10-30T22:41:34.671Z,73.67
2022-10-30T22:44:08.078Z,73.85
2022-10-30T22:46:36.442Z,73.96
2022-10-30T22:49:03.336Z,73.83
2022-10-30T22:51:32.905Z,73.97
2022-10-30T22:54:02.217Z,74.22
2022-10-30T22:56:31.917Z,73.68
2022-10-30T22:59:02.157Z,73.88
2022-10-30T23:01:30.837Z,73.72
2022-10-30T23:04:00.257Z,73.68
2022-10-30T23:06:28.769Z,73.62
2022-10-30T23:08:58.173Z,73.34
2022-10-30T23:11:25.092Z,73.45
2022-10-30T23:13:52.164Z,73.53
2022-10-30T23:16:21.646Z,73.45
2022-10-30T23:18:49.209Z,73.40
2022-10-30T23:21:20.880Z,73.35
2022-10-30T23:23:48.025Z,73.42
2022-10-30T23:26:23.742Z,73.36
2022-10-30T23:28:52.772Z,73.32
2022-10-30T23:31:27.020Z,73.55
2022-10-30T23:33:55.773Z,73.40
2022-10-30T23:36:23.273Z,73.10
2022-10-30T23:38:55.885Z,73.27
2022-10-30T23:41:25.299Z,73.29
2022-10-30T23:44:00.100Z,73.38
2022-10-30T23:46:27.215Z,73.42
2022-10-30T23:48:54.213Z,73.64
2022-10-30T23:51:21.691Z,73.46
2022-10-30T23:53:48.819Z,73.52
2022-10-30T23:56:16.429Z,73.44
2022-10-30T23:58:44.805Z,73.64
